Lmz Ariel — V7XR4 — position and weather

sailwx.info

Track history (hours):
 
Tides and Currents Weather Stations Pressure Air Temp Water Temp Dewpoint Dewpoint Depression Visibility Wind Speed Wind Dir Waves Ship Positions

Lmz Ariel

Last reported at 2017-Dec-03 10:14 UTC. Time now 2017-Dec-16 11:22 UTC.
Position N 36°27' E 014°36'.
Warning: this ship's position is 13 days out of date.

Length 190 m; draft 11.5 m.

Type: Cargo ship. MMSI: 538004551.

Date/timePositionNaut miles runAvg speedWind from/ knotsBaromVisibWave heightAir tempDewpointWater temp
2017-Dec-03 10:14N 36°27' E 014°36'1413.0
2017-Dec-03 09:11N 36°31' E 014°20'312.8
2017-Dec-03 08:59N 36°32' E 014°17'612.6
2017-Dec-03 08:30N 36°34' E 014°10'612.4
2017-Dec-03 08:00N 36°36' E 014°02'  
2017-Nov-30 00:54N 36°00' W 005°13'614.7
2017-Nov-30 00:30N 35°59' W 005°20'714.1
2017-Nov-30 00:00N 35°57' W 005°28'33312.0
2017-Nov-28 20:21N 32°13' W 010°26'511.9
2017-Nov-28 19:58N 32°09' W 010°29'811.5
2017-Nov-28 19:16N 32°03' W 010°34'311.3
2017-Nov-28 18:58N 31°60' W 010°36'611.5
2017-Nov-28 18:26N 31°54' W 010°40'511.6
2017-Nov-28 18:00N 31°50' W 010°43'1611.5
2017-Nov-28 16:39N 31°37' W 010°53'211.4
2017-Nov-28 16:30N 31°36' W 010°54'611.4
2017-Nov-28 16:00N 31°31' W 010°58'3011.6
2017-Nov-28 13:27N 31°06' W 011°17'4611.9
2017-Nov-28 09:37N 30°28' W 011°46'311.7
2017-Nov-28 09:24N 30°26' W 011°48'511.9
2017-Nov-28 09:00N 30°22' W 011°51'612.2
2017-Nov-28 08:30N 30°17' W 011°55'17411.9
2017-Nov-27 17:53N 27°50' W 013°43'512.2
2017-Nov-27 17:30N 27°46' W 013°46'612.1
2017-Nov-27 17:00N 27°41' W 013°49'612.4
2017-Nov-27 16:30N 27°36' W 013°53'612.7
2017-Nov-27 16:00N 27°31' W 013°57'612.8
2017-Nov-27 15:30N 27°25' W 014°01'612.8
2017-Nov-27 15:00N 27°20' W 014°05'713.0
2017-Nov-27 14:30N 27°14' W 014°09'713.1
2017-Nov-27 14:00N 27°09' W 014°13'  
Track history (hours):
 
Tides and Currents Weather Stations Pressure Air Temp Water Temp Dewpoint Dewpoint Depression Visibility Wind Speed Wind Dir Waves Ship Positions

Lmz Ariel

Last reported at 2017-Dec-03 10:14 UTC. Time now 2017-Dec-16 11:22 UTC.
Position N 36°27' E 014°36'.
Warning: this ship's position is 13 days out of date.

Length 190 m; draft 11.5 m.

Type: Cargo ship. MMSI: 538004551.

Date/timePositionNaut miles runAvg speedWind from/ knotsBaromVisibWave heightAir tempDewpointWater temp
2017-Dec-03 10:14N 36°27' E 014°36'1413.0
2017-Dec-03 09:11N 36°31' E 014°20'312.8
2017-Dec-03 08:59N 36°32' E 014°17'612.6
2017-Dec-03 08:30N 36°34' E 014°10'612.4
2017-Dec-03 08:00N 36°36' E 014°02'  
2017-Nov-30 00:54N 36°00' W 005°13'614.7
2017-Nov-30 00:30N 35°59' W 005°20'714.1
2017-Nov-30 00:00N 35°57' W 005°28'33312.0
2017-Nov-28 20:21N 32°13' W 010°26'511.9
2017-Nov-28 19:58N 32°09' W 010°29'811.5
2017-Nov-28 19:16N 32°03' W 010°34'311.3
2017-Nov-28 18:58N 31°60' W 010°36'611.5
2017-Nov-28 18:26N 31°54' W 010°40'511.6
2017-Nov-28 18:00N 31°50' W 010°43'1611.5
2017-Nov-28 16:39N 31°37' W 010°53'211.4
2017-Nov-28 16:30N 31°36' W 010°54'611.4
2017-Nov-28 16:00N 31°31' W 010°58'3011.6
2017-Nov-28 13:27N 31°06' W 011°17'4611.9
2017-Nov-28 09:37N 30°28' W 011°46'311.7
2017-Nov-28 09:24N 30°26' W 011°48'511.9
2017-Nov-28 09:00N 30°22' W 011°51'612.2
2017-Nov-28 08:30N 30°17' W 011°55'17411.9
2017-Nov-27 17:53N 27°50' W 013°43'512.2
2017-Nov-27 17:30N 27°46' W 013°46'612.1
2017-Nov-27 17:00N 27°41' W 013°49'612.4
2017-Nov-27 16:30N 27°36' W 013°53'612.7
2017-Nov-27 16:00N 27°31' W 013°57'612.8
2017-Nov-27 15:30N 27°25' W 014°01'612.8
2017-Nov-27 15:00N 27°20' W 014°05'713.0
2017-Nov-27 14:30N 27°14' W 014°09'713.1
2017-Nov-27 14:00N 27°09' W 014°13'  

Dump ship's entire track history